createdAt,value
2018-06-30T00:01:42.796Z,3.70
2018-06-30T00:04:10.788Z,3.50
2018-06-30T00:06:38.856Z,3.27
2018-06-30T00:09:08.813Z,3.57
2018-06-30T00:11:37.197Z,3.13
2018-06-30T00:14:05.200Z,3.40
2018-06-30T00:16:33.232Z,4.30
2018-06-30T00:19:01.284Z,3.37
2018-06-30T00:21:29.323Z,3.03
2018-06-30T00:23:57.324Z,3.17
2018-06-30T00:26:25.347Z,3.60
2018-06-30T00:28:53.308Z,3.30
2018-06-30T00:31:21.313Z,4.23
2018-06-30T00:33:49.296Z,3.60
2018-06-30T00:36:17.324Z,3.37
2018-06-30T00:38:45.377Z,3.00
2018-06-30T00:41:13.372Z,3.07
2018-06-30T00:43:41.386Z,2.90
2018-06-30T00:46:09.371Z,3.50
2018-06-30T00:48:37.411Z,2.83
2018-06-30T00:51:05.398Z,3.20
2018-06-30T00:53:33.440Z,2.90
2018-06-30T00:56:01.420Z,3.03
2018-06-30T00:58:29.409Z,3.00
2018-06-30T01:00:57.413Z,3.00
2018-06-30T01:03:25.432Z,2.90
2018-06-30T01:05:53.453Z,3.67
2018-06-30T01:08:21.460Z,3.10
2018-06-30T01:10:49.475Z,3.13
2018-06-30T01:13:17.471Z,3.10
2018-06-30T01:15:45.580Z,3.07
2018-06-30T01:18:13.589Z,3.30
2018-06-30T01:20:41.556Z,3.13
2018-06-30T01:23:09.594Z,2.67
2018-06-30T01:25:37.580Z,3.00
2018-06-30T01:28:06.069Z,2.87
2018-06-30T01:30:34.071Z,3.00
2018-06-30T01:33:02.054Z,2.90
2018-06-30T01:35:30.023Z,2.77
2018-06-30T01:37:58.035Z,2.90
2018-06-30T01:40:26.016Z,2.70
2018-06-30T01:42:54.013Z,2.67
2018-06-30T01:45:21.988Z,3.10
2018-06-30T01:47:49.974Z,2.63
2018-06-30T01:50:17.936Z,2.73
2018-06-30T01:52:46.127Z,2.57
2018-06-30T01:55:14.193Z,2.23
2018-06-30T01:57:42.177Z,3.40
2018-06-30T02:00:10.168Z,2.30
2018-06-30T02:02:38.200Z,2.40
2018-06-30T02:05:06.248Z,2.30
2018-06-30T02:07:34.250Z,2.43
2018-06-30T02:10:02.238Z,2.50
2018-06-30T02:12:30.229Z,3.00
2018-06-30T02:14:58.220Z,2.23
2018-06-30T02:17:26.220Z,1.80
2018-06-30T02:19:54.255Z,2.30
2018-06-30T02:22:22.280Z,2.57
2018-06-30T02:24:50.312Z,2.60
2018-06-30T02:27:18.332Z,2.33
2018-06-30T02:29:46.343Z,2.60
2018-06-30T02:32:14.329Z,2.77
2018-06-30T02:34:42.300Z,2.10
2018-06-30T02:37:10.293Z,2.20
2018-06-30T02:39:38.309Z,2.40
2018-06-30T02:42:06.329Z,2.00
2018-06-30T02:44:34.318Z,1.80
2018-06-30T02:47:02.293Z,2.10
2018-06-30T02:49:30.428Z,2.00
2018-06-30T02:51:58.411Z,2.27
2018-06-30T02:54:26.410Z,2.10
2018-06-30T02:56:55.057Z,1.60
2018-06-30T02:59:23.665Z,1.50
2018-06-30T03:01:51.648Z,1.70
2018-06-30T03:04:19.621Z,1.70
2018-06-30T03:06:47.597Z,1.70
2018-06-30T03:09:15.616Z,1.90
2018-06-30T03:11:43.658Z,1.90
2018-06-30T03:14:11.705Z,1.93
2018-06-30T03:16:39.689Z,1.60
2018-06-30T03:19:07.700Z,1.83
2018-06-30T03:21:35.668Z,1.60
2018-06-30T03:24:03.788Z,1.43
2018-06-30T03:26:31.769Z,2.00
2018-06-30T03:28:59.880Z,1.90
2018-06-30T03:31:27.970Z,1.70
2018-06-30T03:33:55.883Z,1.60
2018-06-30T03:36:24.697Z,1.87
2018-06-30T03:38:52.717Z,1.90
2018-06-30T03:41:20.693Z,1.70
2018-06-30T03:43:48.697Z,1.60
2018-06-30T03:46:16.689Z,1.70
2018-06-30T03:48:44.720Z,1.57
2018-06-30T03:51:12.725Z,1.40
2018-06-30T03:53:40.752Z,1.43
2018-06-30T03:56:08.727Z,1.43
2018-06-30T03:58:36.707Z,1.80
2018-06-30T04:01:04.689Z,1.20
2018-06-30T04:03:32.661Z,1.40
2018-06-30T04:06:00.677Z,1.40
2018-06-30T04:08:28.768Z,1.40
2018-06-30T04:10:56.772Z,1.10
2018-06-30T04:13:24.797Z,1.70
2018-06-30T04:15:52.820Z,1.23
2018-06-30T04:18:20.851Z,0.93
2018-06-30T04:20:48.841Z,1.43
2018-06-30T04:23:16.835Z,1.30
2018-06-30T04:25:44.813Z,1.20
2018-06-30T04:28:12.813Z,0.90
2018-06-30T04:30:40.833Z,1.20
2018-06-30T04:33:09.097Z,1.43
2018-06-30T04:35:37.281Z,1.47
2018-06-30T04:38:05.596Z,1.10
2018-06-30T04:40:33.653Z,1.03
2018-06-30T04:43:01.728Z,0.90
2018-06-30T04:45:29.969Z,1.07
2018-06-30T04:47:58.101Z,1.27
2018-06-30T04:50:26.113Z,0.93
2018-06-30T04:52:54.110Z,0.90
2018-06-30T04:55:22.120Z,1.07
2018-06-30T04:57:50.149Z,0.87
2018-06-30T05:00:18.149Z,1.20
2018-06-30T05:02:46.221Z,1.00
2018-06-30T05:05:14.265Z,0.80
2018-06-30T05:07:42.266Z,0.93
2018-06-30T05:10:10.268Z,1.00
2018-06-30T05:12:38.281Z,0.90
2018-06-30T05:15:06.540Z,0.83
2018-06-30T05:17:34.569Z,1.00
2018-06-30T05:20:02.569Z,1.03
2018-06-30T05:22:30.686Z,1.10
2018-06-30T05:24:58.681Z,0.90
2018-06-30T05:27:26.697Z,1.60
2018-06-30T05:29:54.696Z,1.97
2018-06-30T05:32:22.675Z,0.73
2018-06-30T05:34:50.688Z,0.80
2018-06-30T05:37:18.721Z,1.00
2018-06-30T05:39:46.777Z,6.07
2018-06-30T05:42:14.799Z,1.50
2018-06-30T05:44:42.831Z,2.20
2018-06-30T05:47:10.857Z,0.90
2018-06-30T05:49:38.852Z,0.70
2018-06-30T05:52:06.878Z,0.90
2018-06-30T05:54:34.901Z,1.60
2018-06-30T05:57:02.905Z,0.60
2018-06-30T05:59:30.921Z,1.03
2018-06-30T06:01:58.920Z,1.07
2018-06-30T06:04:26.921Z,0.70
2018-06-30T06:06:54.957Z,0.60
2018-06-30T06:09:22.976Z,5.90
2018-06-30T06:14:23.631Z,0.80
2018-06-30T06:16:51.638Z,1.10
2018-06-30T06:19:19.656Z,0.80
2018-06-30T06:21:47.676Z,1.27
2018-06-30T06:24:15.678Z,0.70
2018-06-30T06:26:43.689Z,0.70
2018-06-30T06:29:11.708Z,0.70
2018-06-30T06:31:39.677Z,0.70
2018-06-30T06:34:07.689Z,0.73
2018-06-30T06:36:36.395Z,1.17
2018-06-30T06:39:06.975Z,1.20
2018-06-30T06:41:35.044Z,0.63
2018-06-30T06:44:02.980Z,0.90
2018-06-30T06:46:31.173Z,0.80
2018-06-30T06:48:59.175Z,0.80
2018-06-30T06:51:27.361Z,0.80
2018-06-30T06:53:55.403Z,0.67
2018-06-30T06:56:23.404Z,0.60
2018-06-30T06:58:51.908Z,1.60
2018-06-30T07:01:19.913Z,0.80
2018-06-30T07:03:48.004Z,0.60
2018-06-30T07:06:16.021Z,0.73
2018-06-30T07:08:44.112Z,0.67
2018-06-30T07:11:12.137Z,0.60
2018-06-30T07:13:40.214Z,0.60
2018-06-30T07:16:08.692Z,0.70
2018-06-30T07:18:36.684Z,0.80
2018-06-30T07:21:04.721Z,0.73
2018-06-30T07:23:32.800Z,0.57
2018-06-30T07:26:00.839Z,0.90
2018-06-30T07:28:28.863Z,0.57
2018-06-30T07:30:56.865Z,2.10
2018-06-30T07:33:24.897Z,0.77
2018-06-30T07:35:53.043Z,0.60
2018-06-30T07:38:20.881Z,0.70
2018-06-30T07:40:48.899Z,0.60
2018-06-30T07:43:16.996Z,1.67
2018-06-30T07:45:44.964Z,0.90
2018-06-30T07:48:12.989Z,4.23
2018-06-30T07:50:41.020Z,1.43
2018-06-30T07:53:09.128Z,0.67
2018-06-30T07:55:37.165Z,0.63
2018-06-30T07:58:05.380Z,2.70
2018-06-30T08:00:33.495Z,1.07
2018-06-30T08:03:01.549Z,1.60
2018-06-30T08:05:29.788Z,0.70
2018-06-30T08:07:57.643Z,0.97
2018-06-30T08:10:25.650Z,0.70
2018-06-30T08:12:53.717Z,1.77
2018-06-30T08:15:21.748Z,0.83
2018-06-30T08:17:49.765Z,0.80
2018-06-30T08:20:17.768Z,0.63
2018-06-30T08:22:45.800Z,0.70
2018-06-30T08:25:13.819Z,0.77
2018-06-30T08:27:41.861Z,0.80
2018-06-30T08:30:09.845Z,0.70
2018-06-30T08:32:37.900Z,0.60
2018-06-30T08:35:05.949Z,0.70
2018-06-30T08:37:33.961Z,0.90
2018-06-30T08:40:01.945Z,2.47
2018-06-30T08:42:29.998Z,0.60
2018-06-30T08:44:58.039Z,0.60
2018-06-30T08:47:26.161Z,0.60
2018-06-30T08:49:54.248Z,1.80
2018-06-30T08:52:22.256Z,0.70
2018-06-30T08:54:50.253Z,0.80
2018-06-30T08:57:18.289Z,1.53
2018-06-30T08:59:46.317Z,0.70
2018-06-30T09:02:14.301Z,1.77
2018-06-30T09:04:42.332Z,0.50
2018-06-30T09:07:10.389Z,0.97
2018-06-30T09:09:38.689Z,0.70
2018-06-30T09:12:06.958Z,0.83
2018-06-30T09:14:34.969Z,1.10
2018-06-30T09:17:02.949Z,0.70
2018-06-30T09:19:30.969Z,0.60
2018-06-30T09:21:59.049Z,1.23
2018-06-30T09:24:27.060Z,0.90
2018-06-30T09:26:55.117Z,0.80
2018-06-30T09:29:23.144Z,0.67
2018-06-30T09:31:51.149Z,0.90
2018-06-30T09:34:19.181Z,1.97
2018-06-30T09:36:47.177Z,0.70
2018-06-30T09:39:15.197Z,1.23
2018-06-30T09:41:43.206Z,0.70
2018-06-30T09:44:11.229Z,0.73
2018-06-30T09:46:39.236Z,1.20
2018-06-30T09:49:07.461Z,1.10
2018-06-30T09:51:35.528Z,0.70
2018-06-30T09:54:03.530Z,1.07
2018-06-30T09:56:31.540Z,0.70
2018-06-30T09:58:59.544Z,1.30
2018-06-30T10:01:27.540Z,0.60
2018-06-30T10:03:55.561Z,0.70
2018-06-30T10:06:23.628Z,0.80
2018-06-30T10:08:51.653Z,0.60
2018-06-30T10:11:19.713Z,1.70
2018-06-30T10:13:47.953Z,0.90
2018-06-30T10:16:15.980Z,0.70
2018-06-30T10:18:44.005Z,0.70
2018-06-30T10:21:12.027Z,0.73
2018-06-30T10:23:40.031Z,0.60
2018-06-30T10:26:08.125Z,0.70
2018-06-30T10:28:36.232Z,0.60
2018-06-30T10:31:04.225Z,0.70
2018-06-30T10:33:32.271Z,0.60
2018-06-30T10:36:00.298Z,0.80
2018-06-30T10:38:28.310Z,0.60
2018-06-30T10:40:56.308Z,0.60
2018-06-30T10:43:24.417Z,0.60
2018-06-30T10:45:52.528Z,1.87
2018-06-30T10:48:20.524Z,0.60
2018-06-30T10:50:48.537Z,0.50
2018-06-30T10:53:16.594Z,0.63
2018-06-30T10:55:44.613Z,0.70
2018-06-30T10:58:12.683Z,0.50
2018-06-30T11:00:40.689Z,0.50
2018-06-30T11:03:08.697Z,0.60
2018-06-30T11:05:36.864Z,0.60
2018-06-30T11:08:04.869Z,0.63
2018-06-30T11:10:32.909Z,0.57
2018-06-30T11:13:00.923Z,0.70
2018-06-30T11:15:28.946Z,0.60
2018-06-30T11:17:56.956Z,0.70
2018-06-30T11:20:24.977Z,0.60
2018-06-30T11:22:53.000Z,0.50
2018-06-30T11:25:21.016Z,0.70
2018-06-30T11:27:49.065Z,0.60
2018-06-30T11:30:18.073Z,0.50
2018-06-30T11:32:46.231Z,0.60
2018-06-30T11:35:14.236Z,0.70
2018-06-30T11:37:42.253Z,0.50
2018-06-30T11:40:10.263Z,0.53
2018-06-30T11:42:38.269Z,0.50
2018-06-30T11:45:06.392Z,0.60
2018-06-30T11:47:34.406Z,0.50
2018-06-30T11:50:02.409Z,0.60
2018-06-30T11:52:30.446Z,0.60
2018-06-30T11:54:58.491Z,0.70
2018-06-30T11:57:26.505Z,0.60
2018-06-30T11:59:54.500Z,0.60
2018-06-30T12:02:22.481Z,0.60
2018-06-30T12:04:50.508Z,0.70
2018-06-30T12:07:18.548Z,0.50
2018-06-30T12:09:46.534Z,0.70
2018-06-30T12:12:14.544Z,0.60
2018-06-30T12:14:42.580Z,0.60
2018-06-30T12:17:10.568Z,0.70
2018-06-30T12:19:38.620Z,0.80
2018-06-30T12:22:06.657Z,0.60
2018-06-30T12:24:34.988Z,0.77
2018-06-30T12:27:02.999Z,0.60
2018-06-30T12:29:31.000Z,0.50
2018-06-30T12:31:59.036Z,0.70
2018-06-30T12:34:27.006Z,0.70
2018-06-30T12:36:55.124Z,0.50
2018-06-30T12:39:23.235Z,0.70
2018-06-30T12:41:51.232Z,0.60
2018-06-30T12:44:20.259Z,0.70
2018-06-30T12:46:48.335Z,0.50
2018-06-30T12:49:16.362Z,0.70
2018-06-30T12:51:44.409Z,0.60
2018-06-30T12:54:12.485Z,0.53
2018-06-30T12:56:40.511Z,0.53
2018-06-30T12:59:08.578Z,0.60
2018-06-30T13:01:36.636Z,0.70
2018-06-30T13:04:04.909Z,0.90
2018-06-30T13:06:32.929Z,0.70
2018-06-30T13:09:01.069Z,0.60
2018-06-30T13:11:29.197Z,0.90
2018-06-30T13:13:57.357Z,0.60
2018-06-30T13:16:25.499Z,0.50
2018-06-30T13:18:53.820Z,0.60
2018-06-30T13:21:21.848Z,0.67
2018-06-30T13:23:49.992Z,0.90
2018-06-30T13:26:18.005Z,0.80
2018-06-30T13:28:46.114Z,0.70
2018-06-30T13:31:14.032Z,0.60
2018-06-30T13:33:42.005Z,0.70
2018-06-30T13:36:10.012Z,0.80
2018-06-30T13:38:38.033Z,0.60
2018-06-30T13:41:06.362Z,0.70
2018-06-30T13:43:34.365Z,0.60
2018-06-30T13:46:02.369Z,0.80
2018-06-30T13:48:30.388Z,1.07
2018-06-30T13:50:58.417Z,0.70
2018-06-30T13:53:26.440Z,0.70
2018-06-30T13:55:54.457Z,0.73
2018-06-30T13:58:22.500Z,0.60
2018-06-30T14:00:50.578Z,0.70
2018-06-30T14:03:18.568Z,0.80
2018-06-30T14:05:46.589Z,0.53
2018-06-30T14:08:14.645Z,0.60
2018-06-30T14:10:42.649Z,0.77
2018-06-30T14:13:10.667Z,0.70
2018-06-30T14:15:38.689Z,0.60
2018-06-30T14:18:06.828Z,0.67
2018-06-30T14:20:34.840Z,1.00
2018-06-30T14:23:02.844Z,1.23
2018-06-30T14:25:31.329Z,0.53
2018-06-30T14:27:59.364Z,0.50
2018-06-30T14:30:27.399Z,0.60
2018-06-30T14:32:55.454Z,0.77
2018-06-30T14:35:23.471Z,0.97
2018-06-30T14:37:51.482Z,0.57
2018-06-30T14:40:19.472Z,0.70
2018-06-30T14:42:47.524Z,0.50
2018-06-30T14:45:15.541Z,0.60
2018-06-30T14:47:43.584Z,0.50
2018-06-30T14:50:11.637Z,0.50
2018-06-30T14:52:39.673Z,0.70
2018-06-30T14:55:07.724Z,0.50
2018-06-30T14:57:35.723Z,0.60
2018-06-30T15:00:05.666Z,0.50
2018-06-30T15:02:33.777Z,0.57
2018-06-30T15:05:01.797Z,0.60
2018-06-30T15:07:29.848Z,0.60
2018-06-30T15:09:57.797Z,0.67
2018-06-30T15:12:25.901Z,0.50
2018-06-30T15:14:54.461Z,0.60
2018-06-30T15:17:22.465Z,0.60
2018-06-30T15:19:50.446Z,0.90
2018-06-30T15:22:18.461Z,1.33
2018-06-30T15:24:46.461Z,0.70
2018-06-30T15:27:14.457Z,0.90
2018-06-30T15:29:42.461Z,1.60
2018-06-30T15:32:10.507Z,2.77
2018-06-30T15:34:38.496Z,0.53
2018-06-30T15:37:06.501Z,0.60
2018-06-30T15:39:34.564Z,0.70
2018-06-30T15:42:02.585Z,0.60
2018-06-30T15:44:30.582Z,0.60
2018-06-30T15:46:58.812Z,0.70
2018-06-30T15:49:26.832Z,0.53
2018-06-30T15:51:54.816Z,0.60
2018-06-30T15:54:22.821Z,0.50
2018-06-30T15:56:50.832Z,0.77
2018-06-30T15:59:18.877Z,0.90
2018-06-30T16:01:46.884Z,0.60
2018-06-30T16:04:14.870Z,0.60
2018-06-30T16:06:42.881Z,0.50
2018-06-30T16:09:11.781Z,0.80
2018-06-30T16:11:39.780Z,0.60
2018-06-30T16:14:08.716Z,0.60
2018-06-30T16:16:36.902Z,0.60
2018-06-30T16:19:04.938Z,0.50
2018-06-30T16:21:33.156Z,0.63
2018-06-30T16:24:01.313Z,0.70
2018-06-30T16:26:29.456Z,0.60
2018-06-30T16:28:57.590Z,0.60
2018-06-30T16:31:25.527Z,0.53
2018-06-30T16:33:53.545Z,0.50
2018-06-30T16:36:21.884Z,0.57
2018-06-30T16:38:49.908Z,0.80
2018-06-30T16:41:17.928Z,0.60
2018-06-30T16:43:46.024Z,0.60
2018-06-30T16:46:13.990Z,0.60
2018-06-30T16:48:41.993Z,0.80
2018-06-30T16:51:09.995Z,0.60
2018-06-30T16:53:37.980Z,0.50
2018-06-30T16:56:06.026Z,0.60
2018-06-30T16:58:34.055Z,0.67
2018-06-30T17:01:02.052Z,0.60
2018-06-30T17:03:31.114Z,0.70
2018-06-30T17:05:59.132Z,0.60
2018-06-30T17:08:27.137Z,0.50
2018-06-30T17:10:55.156Z,0.63
2018-06-30T17:13:23.202Z,1.13
2018-06-30T17:15:51.237Z,0.80
2018-06-30T17:18:19.289Z,0.80
2018-06-30T17:20:47.348Z,0.70
2018-06-30T17:23:15.451Z,0.90
2018-06-30T17:25:43.488Z,0.63
2018-06-30T17:28:11.577Z,0.60
2018-06-30T17:30:39.647Z,0.70
2018-06-30T17:33:07.668Z,0.87
2018-06-30T17:35:35.665Z,0.80
2018-06-30T17:38:03.686Z,0.70
2018-06-30T17:40:31.667Z,0.97
2018-06-30T17:42:59.712Z,0.70
2018-06-30T17:45:27.725Z,0.80
2018-06-30T17:47:55.845Z,0.80
2018-06-30T17:50:23.860Z,0.60
2018-06-30T17:52:51.921Z,0.70
2018-06-30T17:55:19.928Z,0.70
2018-06-30T17:57:47.948Z,0.60
2018-06-30T18:00:15.940Z,0.80
2018-06-30T18:02:43.962Z,0.70
2018-06-30T18:05:11.950Z,0.90
2018-06-30T18:07:39.933Z,0.73
2018-06-30T18:10:07.969Z,0.70
2018-06-30T18:12:35.957Z,0.80
2018-06-30T18:15:04.045Z,0.70
2018-06-30T18:17:32.077Z,0.90
2018-06-30T18:20:00.780Z,0.70
2018-06-30T18:22:28.786Z,0.70
2018-06-30T18:24:56.860Z,0.80
2018-06-30T18:27:25.056Z,0.67
2018-06-30T18:29:53.157Z,0.60
2018-06-30T18:32:22.176Z,0.70
2018-06-30T18:34:50.201Z,0.73
2018-06-30T18:37:18.210Z,0.60
2018-06-30T18:39:46.404Z,0.77
2018-06-30T18:42:14.589Z,0.60
2018-06-30T18:44:42.656Z,0.90
2018-06-30T18:47:10.841Z,0.70
2018-06-30T18:49:38.837Z,0.80
2018-06-30T18:52:06.984Z,0.77
2018-06-30T18:54:35.033Z,0.70
2018-06-30T18:57:03.057Z,0.67
2018-06-30T18:59:31.117Z,0.80
2018-06-30T19:01:59.087Z,0.90
2018-06-30T19:04:27.098Z,0.90
2018-06-30T19:06:55.081Z,0.80
2018-06-30T19:09:23.240Z,0.90
2018-06-30T19:11:51.313Z,0.70
2018-06-30T19:14:19.349Z,0.60
2018-06-30T19:16:47.339Z,0.90
2018-06-30T19:19:15.375Z,0.70
2018-06-30T19:21:43.399Z,0.80
2018-06-30T19:24:11.577Z,0.80
2018-06-30T19:26:39.690Z,0.70
2018-06-30T19:29:07.644Z,0.60
2018-06-30T19:31:35.612Z,0.70
2018-06-30T19:34:03.873Z,0.70
2018-06-30T19:36:32.006Z,0.70
2018-06-30T19:39:00.150Z,0.70
2018-06-30T19:41:28.312Z,0.60
2018-06-30T19:43:56.300Z,1.23
2018-06-30T19:46:25.035Z,0.60
2018-06-30T19:48:53.097Z,0.90
2018-06-30T19:51:21.073Z,0.90
2018-06-30T19:53:49.074Z,1.10
2018-06-30T19:56:17.225Z,2.23
2018-06-30T19:58:45.342Z,2.00
2018-06-30T20:01:13.402Z,0.93
2018-06-30T20:03:41.435Z,0.97
2018-06-30T20:06:09.423Z,1.20
2018-06-30T20:08:37.441Z,0.83
2018-06-30T20:11:05.520Z,0.73
2018-06-30T20:13:33.590Z,0.70
2018-06-30T20:16:01.853Z,0.80
2018-06-30T20:18:29.939Z,0.80
2018-06-30T20:20:58.003Z,0.73
2018-06-30T20:23:25.985Z,0.53
2018-06-30T20:25:53.980Z,0.70
2018-06-30T20:28:22.185Z,0.73
2018-06-30T20:30:50.221Z,1.00
2018-06-30T20:33:18.205Z,0.60
2018-06-30T20:35:46.224Z,0.87
2018-06-30T20:38:14.192Z,1.07
2018-06-30T20:40:42.202Z,0.70
2018-06-30T20:43:10.237Z,0.63
2018-06-30T20:45:38.265Z,0.70
2018-06-30T20:48:06.270Z,0.70
2018-06-30T20:50:34.325Z,0.70
2018-06-30T20:53:02.381Z,0.80
2018-06-30T20:55:30.412Z,0.63
2018-06-30T20:57:58.435Z,0.70
2018-06-30T21:00:26.553Z,0.75
2018-06-30T21:02:54.601Z,0.70
2018-06-30T21:05:22.599Z,0.60
2018-06-30T21:07:50.675Z,0.90
2018-06-30T21:10:18.669Z,0.50
2018-06-30T21:12:46.681Z,0.83
2018-06-30T21:15:14.669Z,0.90
2018-06-30T21:17:42.686Z,0.70
2018-06-30T21:20:10.696Z,0.70
2018-06-30T21:22:38.697Z,0.70
2018-06-30T21:25:06.776Z,0.80
2018-06-30T21:27:34.811Z,0.60
2018-06-30T21:30:02.886Z,0.90
2018-06-30T21:32:30.964Z,0.80
2018-06-30T21:34:59.001Z,0.70
2018-06-30T21:37:27.034Z,0.90
2018-06-30T21:39:55.074Z,2.20
2018-06-30T21:42:23.144Z,0.93
2018-06-30T21:44:51.322Z,0.87
2018-06-30T21:47:19.304Z,0.70
2018-06-30T21:49:47.296Z,1.00
2018-06-30T21:52:15.300Z,0.77
2018-06-30T21:54:43.317Z,0.80
2018-06-30T21:57:11.375Z,0.83
2018-06-30T21:59:39.370Z,0.90
2018-06-30T22:02:08.740Z,0.70
2018-06-30T22:04:37.154Z,0.80
2018-06-30T22:07:05.157Z,0.90
2018-06-30T22:09:33.178Z,0.80
2018-06-30T22:12:01.201Z,0.70
2018-06-30T22:14:29.225Z,0.80
2018-06-30T22:16:57.241Z,0.87
2018-06-30T22:19:25.341Z,0.90
2018-06-30T22:21:54.126Z,1.10
2018-06-30T22:24:22.225Z,1.00
2018-06-30T22:26:50.228Z,1.03
2018-06-30T22:29:18.245Z,0.70
2018-06-30T22:31:46.257Z,0.70
2018-06-30T22:34:14.250Z,1.00
2018-06-30T22:36:42.244Z,1.03
2018-06-30T22:39:11.773Z,0.90
2018-06-30T22:41:39.865Z,0.83
2018-06-30T22:44:07.976Z,0.90
2018-06-30T22:46:36.989Z,1.10
2018-06-30T22:49:05.085Z,0.70
2018-06-30T22:51:33.148Z,0.90
2018-06-30T22:54:01.195Z,0.87
2018-06-30T22:56:29.207Z,1.00
2018-06-30T22:58:57.174Z,1.10
2018-06-30T23:01:25.181Z,0.80
2018-06-30T23:03:53.234Z,0.90
2018-06-30T23:06:21.237Z,1.10
2018-06-30T23:08:53.374Z,0.90
2018-06-30T23:11:21.598Z,1.10
2018-06-30T23:13:49.614Z,1.03
2018-06-30T23:16:17.656Z,1.00
2018-06-30T23:18:45.676Z,0.80
2018-06-30T23:21:13.670Z,1.00
2018-06-30T23:23:41.703Z,1.13
2018-06-30T23:26:09.702Z,0.90
2018-06-30T23:28:37.737Z,0.90
2018-06-30T23:31:05.808Z,1.07
2018-06-30T23:33:33.883Z,1.10
2018-06-30T23:36:01.873Z,1.03
2018-06-30T23:38:29.899Z,1.10
2018-06-30T23:40:57.896Z,0.93
2018-06-30T23:43:25.926Z,1.00
2018-06-30T23:45:54.008Z,1.10
2018-06-30T23:48:22.021Z,1.20
2018-06-30T23:50:50.020Z,0.87
2018-06-30T23:53:18.044Z,1.17
2018-06-30T23:55:46.041Z,1.00
2018-06-30T23:58:14.041Z,0.93
